createdAt,value
2018-05-31T00:01:29.759Z,8.70
2018-05-31T00:03:57.313Z,8.20
2018-05-31T00:06:24.891Z,7.70
2018-05-31T00:08:52.414Z,7.18
2018-05-31T00:11:19.941Z,8.20
2018-05-31T00:13:47.506Z,8.57
2018-05-31T00:16:15.822Z,8.13
2018-05-31T00:18:43.366Z,14.50
2018-05-31T00:21:10.962Z,8.18
2018-05-31T00:23:38.523Z,11.15
2018-05-31T00:26:06.061Z,7.20
2018-05-31T00:28:33.632Z,8.05
2018-05-31T00:31:01.283Z,8.20
2018-05-31T00:33:28.819Z,6.95
2018-05-31T00:35:57.144Z,8.88
2018-05-31T00:38:24.721Z,7.68
2018-05-31T00:40:52.264Z,7.35
2018-05-31T00:43:19.803Z,8.35
2018-05-31T00:45:47.378Z,7.97
2018-05-31T00:48:14.974Z,7.72
2018-05-31T00:50:43.302Z,7.70
2018-05-31T00:53:10.864Z,8.95
2018-05-31T00:55:50.093Z,7.90
2018-05-31T00:58:17.720Z,7.78
2018-05-31T01:00:45.242Z,9.00
2018-05-31T01:03:12.834Z,9.02
2018-05-31T01:05:40.366Z,8.38
2018-05-31T01:08:07.912Z,8.18
2018-05-31T01:10:35.480Z,7.90
2018-05-31T01:13:03.082Z,8.55
2018-05-31T01:15:31.573Z,7.90
2018-05-31T01:17:59.866Z,9.60
2018-05-31T01:20:27.420Z,8.35
2018-05-31T01:22:54.960Z,8.88
2018-05-31T01:25:22.517Z,8.52
2018-05-31T01:27:51.537Z,8.57
2018-05-31T01:30:19.845Z,8.18
2018-05-31T01:32:47.425Z,8.95
2018-05-31T01:35:14.998Z,8.50
2018-05-31T01:37:42.541Z,8.57
2018-05-31T01:40:10.062Z,8.30
2018-05-31T01:42:37.626Z,9.00
2018-05-31T01:45:05.160Z,8.45
2018-05-31T01:47:32.728Z,9.80
2018-05-31T01:50:00.305Z,8.25
2018-05-31T01:52:27.847Z,8.60
2018-05-31T01:54:55.369Z,8.82
2018-05-31T01:57:22.915Z,9.13
2018-05-31T01:59:50.470Z,9.10
2018-05-31T02:02:17.997Z,9.65
2018-05-31T02:04:45.574Z,8.43
2018-05-31T02:07:13.103Z,8.90
2018-05-31T02:09:41.401Z,9.30
2018-05-31T02:12:09.003Z,9.38
2018-05-31T02:14:36.530Z,9.55
2018-05-31T02:17:04.115Z,9.35
2018-05-31T02:19:31.646Z,9.45
2018-05-31T02:21:59.204Z,10.10
2018-05-31T02:24:26.753Z,9.63
2018-05-31T02:26:55.066Z,10.25
2018-05-31T02:29:22.611Z,9.93
2018-05-31T02:31:50.135Z,9.60
2018-05-31T02:34:17.692Z,9.27
2018-05-31T02:36:45.255Z,10.40
2018-05-31T02:39:12.801Z,10.05
2018-05-31T02:41:40.343Z,9.98
2018-05-31T02:44:07.877Z,10.65
2018-05-31T02:46:35.438Z,10.18
2018-05-31T02:49:02.987Z,10.57
2018-05-31T02:51:30.512Z,9.32
2018-05-31T02:53:58.045Z,9.90
2018-05-31T02:56:25.637Z,9.85
2018-05-31T02:58:53.172Z,10.23
2018-05-31T03:01:20.752Z,10.70
2018-05-31T03:03:48.338Z,11.60
2018-05-31T03:06:15.876Z,9.65
2018-05-31T03:08:43.427Z,9.52
2018-05-31T03:11:10.959Z,10.27
2018-05-31T03:13:38.524Z,9.98
2018-05-31T03:16:06.074Z,10.45
2018-05-31T03:18:33.617Z,10.27
2018-05-31T03:21:01.138Z,9.80
2018-05-31T03:23:29.473Z,11.57
2018-05-31T03:25:57.067Z,11.43
2018-05-31T03:28:24.647Z,11.10
2018-05-31T03:30:52.261Z,10.52
2018-05-31T03:33:19.810Z,10.75
2018-05-31T03:35:47.359Z,9.65
2018-05-31T03:38:14.910Z,10.48
2018-05-31T03:40:42.552Z,11.85
2018-05-31T03:43:10.162Z,10.85
2018-05-31T03:45:37.712Z,11.40
2018-05-31T03:48:05.245Z,10.85
2018-05-31T03:50:32.857Z,11.00
2018-05-31T03:53:00.457Z,12.20
2018-05-31T03:55:28.061Z,11.27
2018-05-31T03:57:55.663Z,11.77
2018-05-31T04:00:23.264Z,10.77
2018-05-31T04:02:50.833Z,12.27
2018-05-31T04:05:18.419Z,11.40
2018-05-31T04:07:45.978Z,11.93
2018-05-31T04:10:13.568Z,12.40
2018-05-31T04:12:41.110Z,12.13
2018-05-31T04:15:08.657Z,12.00
2018-05-31T04:17:36.274Z,12.07
2018-05-31T04:20:03.879Z,11.77
2018-05-31T04:22:31.531Z,12.02
2018-05-31T04:24:59.072Z,12.85
2018-05-31T04:27:26.620Z,11.57
2018-05-31T04:29:54.942Z,13.15
2018-05-31T04:32:22.466Z,14.10
2018-05-31T04:34:50.020Z,12.63
2018-05-31T04:37:17.585Z,12.73
2018-05-31T04:39:45.134Z,12.90
2018-05-31T04:42:13.444Z,12.68
2018-05-31T04:44:41.001Z,13.10
2018-05-31T04:47:08.612Z,12.40
2018-05-31T04:49:36.150Z,17.37
2018-05-31T04:52:03.705Z,14.45
2018-05-31T04:54:31.289Z,14.73
2018-05-31T04:56:58.822Z,15.15
2018-05-31T04:59:26.389Z,13.60
2018-05-31T05:01:53.947Z,13.48
2018-05-31T05:04:21.465Z,15.70
2018-05-31T05:06:49.154Z,13.93
2018-05-31T05:09:16.694Z,13.73
2018-05-31T05:11:45.776Z,13.00
2018-05-31T05:14:14.122Z,13.25
2018-05-31T05:16:41.703Z,13.62
2018-05-31T05:19:10.003Z,14.57
2018-05-31T05:21:37.714Z,14.25
2018-05-31T05:24:05.290Z,13.88
2018-05-31T05:26:34.661Z,13.75
2018-05-31T05:29:02.194Z,15.00
2018-05-31T05:31:29.844Z,13.95
2018-05-31T05:33:57.529Z,14.55
2018-05-31T05:36:25.106Z,14.52
2018-05-31T05:38:52.693Z,14.70
2018-05-31T05:41:20.228Z,13.23
2018-05-31T05:43:47.771Z,15.60
2018-05-31T05:46:15.387Z,14.35
2018-05-31T05:48:42.975Z,15.50
2018-05-31T05:51:10.513Z,15.65
2018-05-31T05:53:38.087Z,16.58
2018-05-31T05:56:06.463Z,14.57
2018-05-31T05:58:34.790Z,16.85
2018-05-31T06:01:02.403Z,15.95
2018-05-31T06:03:29.935Z,15.25
2018-05-31T06:05:57.471Z,15.50
2018-05-31T06:08:25.029Z,14.10
2018-05-31T06:10:52.562Z,15.55
2018-05-31T06:13:20.117Z,13.80
2018-05-31T06:15:47.645Z,14.32
2018-05-31T06:18:15.176Z,13.00
2018-05-31T06:20:42.804Z,11.95
2018-05-31T06:23:10.342Z,14.00
2018-05-31T06:25:40.835Z,13.02
2018-05-31T06:28:08.384Z,14.30
2018-05-31T06:30:35.913Z,12.07
2018-05-31T06:33:03.528Z,13.80
2018-05-31T06:35:31.173Z,15.20
2018-05-31T06:37:58.747Z,15.02
2018-05-31T06:40:26.264Z,14.20
2018-05-31T06:42:53.956Z,14.82
2018-05-31T06:45:21.507Z,13.62
2018-05-31T06:47:49.019Z,12.55
2018-05-31T06:50:18.457Z,12.68
2018-05-31T06:52:47.694Z,13.68
2018-05-31T06:55:15.670Z,13.55
2018-05-31T06:57:43.561Z,13.65
2018-05-31T07:00:11.143Z,15.13
2018-05-31T07:02:38.755Z,12.00
2018-05-31T07:05:06.287Z,12.05
2018-05-31T07:07:33.800Z,12.23
2018-05-31T07:10:01.324Z,10.13
2018-05-31T07:12:28.876Z,10.70
2018-05-31T07:14:56.634Z,10.10
2018-05-31T07:17:24.216Z,9.98
2018-05-31T07:19:51.738Z,9.32
2018-05-31T07:22:19.426Z,9.43
2018-05-31T07:24:46.986Z,9.38
2018-05-31T07:27:14.736Z,8.35
2018-05-31T07:29:42.259Z,7.87
2018-05-31T07:32:10.667Z,7.20
2018-05-31T07:34:38.205Z,9.60
2018-05-31T07:37:05.742Z,7.85
2018-05-31T07:39:33.328Z,7.53
2018-05-31T07:42:01.673Z,6.30
2018-05-31T07:44:29.186Z,9.00
2018-05-31T07:46:56.729Z,7.30
2018-05-31T07:49:25.033Z,7.87
2018-05-31T07:51:52.588Z,8.30
2018-05-31T07:54:20.155Z,7.60
2018-05-31T07:56:47.676Z,7.37
2018-05-31T07:59:15.265Z,6.78
2018-05-31T08:01:42.822Z,7.45
2018-05-31T08:04:10.806Z,7.15
2018-05-31T08:06:38.468Z,7.60
2018-05-31T08:09:05.989Z,8.95
2018-05-31T08:11:33.532Z,6.80
2018-05-31T08:14:01.062Z,7.60
2018-05-31T08:16:28.642Z,6.93
2018-05-31T08:18:56.412Z,8.27
2018-05-31T08:21:24.005Z,8.40
2018-05-31T08:23:52.290Z,8.30
2018-05-31T08:26:19.845Z,9.00
2018-05-31T08:28:47.453Z,7.75
2018-05-31T08:31:14.967Z,7.72
2018-05-31T08:33:42.533Z,8.85
2018-05-31T08:36:10.911Z,8.05
2018-05-31T08:38:38.438Z,8.98
2018-05-31T08:41:06.806Z,8.73
2018-05-31T08:43:34.372Z,10.40
2018-05-31T08:46:01.885Z,9.18
2018-05-31T08:48:29.432Z,9.15
2018-05-31T08:50:57.156Z,8.10
2018-05-31T08:53:24.736Z,10.07
2018-05-31T08:55:52.294Z,11.05
2018-05-31T08:58:20.579Z,10.75
2018-05-31T09:00:48.141Z,8.95
2018-05-31T09:03:15.747Z,8.82
2018-05-31T09:05:43.425Z,9.63
2018-05-31T09:08:11.100Z,9.98
2018-05-31T09:10:38.644Z,8.63
2018-05-31T09:13:06.236Z,8.63
2018-05-31T09:15:33.778Z,9.65
2018-05-31T09:18:01.322Z,9.40
2018-05-31T09:20:28.834Z,9.07
2018-05-31T09:22:56.418Z,10.07
2018-05-31T09:25:24.073Z,9.45
2018-05-31T09:27:51.679Z,9.63
2018-05-31T09:30:19.349Z,10.73
2018-05-31T09:32:47.002Z,10.35
2018-05-31T09:35:14.529Z,9.65
2018-05-31T09:37:42.915Z,8.80
2018-05-31T09:40:10.507Z,9.55
2018-05-31T09:42:38.357Z,9.82
2018-05-31T09:45:06.638Z,9.75
2018-05-31T09:47:34.193Z,10.55
2018-05-31T09:50:01.721Z,8.60
2018-05-31T09:52:29.331Z,9.13
2018-05-31T09:54:56.898Z,9.00
2018-05-31T09:57:24.467Z,8.80
2018-05-31T09:59:52.069Z,8.32
2018-05-31T10:02:19.593Z,9.27
2018-05-31T10:04:47.201Z,9.48
2018-05-31T10:07:14.819Z,13.02
2018-05-31T10:09:42.428Z,8.25
2018-05-31T10:12:09.958Z,7.50
2018-05-31T10:14:37.504Z,7.78
2018-05-31T10:17:05.145Z,7.55
2018-05-31T10:19:32.745Z,6.45
2018-05-31T10:22:00.302Z,7.37
2018-05-31T10:24:28.677Z,7.60
2018-05-31T10:26:56.225Z,8.13
2018-05-31T10:29:23.793Z,6.72
2018-05-31T10:31:51.486Z,8.45
2018-05-31T10:34:19.051Z,6.57
2018-05-31T10:36:46.734Z,7.40
2018-05-31T10:39:14.293Z,6.00
2018-05-31T10:41:41.838Z,6.70
2018-05-31T10:44:09.381Z,7.20
2018-05-31T10:46:36.939Z,7.30
2018-05-31T10:49:04.722Z,6.40
2018-05-31T10:51:32.270Z,7.70
2018-05-31T10:54:00.464Z,5.80
2018-05-31T10:56:28.003Z,5.07
2018-05-31T10:58:55.537Z,5.20
2018-05-31T11:01:23.852Z,5.93
2018-05-31T11:03:51.409Z,5.83
2018-05-31T11:06:18.953Z,5.83
2018-05-31T11:08:46.562Z,5.90
2018-05-31T11:11:14.092Z,5.47
2018-05-31T11:13:41.822Z,5.70
2018-05-31T11:16:10.128Z,5.13
2018-05-31T11:18:37.717Z,5.30
2018-05-31T11:21:05.242Z,5.43
2018-05-31T11:23:32.822Z,5.50
2018-05-31T11:26:00.344Z,5.40
2018-05-31T11:28:29.338Z,5.10
2018-05-31T11:30:56.869Z,5.30
2018-05-31T11:33:25.161Z,5.93
2018-05-31T11:35:53.861Z,5.83
2018-05-31T11:38:22.199Z,6.20
2018-05-31T11:40:49.754Z,5.00
2018-05-31T11:43:17.293Z,4.93
2018-05-31T11:45:44.872Z,5.83
2018-05-31T11:48:13.247Z,5.60
2018-05-31T11:50:40.796Z,6.07
2018-05-31T11:53:08.347Z,5.57
2018-05-31T11:55:35.943Z,6.40
2018-05-31T11:58:03.479Z,6.00
2018-05-31T12:00:31.055Z,6.13
2018-05-31T12:02:58.574Z,5.10
2018-05-31T12:05:27.057Z,6.33
2018-05-31T12:07:55.393Z,6.30
2018-05-31T12:10:22.889Z,5.63
2018-05-31T12:12:50.428Z,5.60
2018-05-31T12:15:17.944Z,5.63
2018-05-31T12:17:45.480Z,6.73
2018-05-31T12:20:12.997Z,6.13
2018-05-31T12:22:40.577Z,6.80
2018-05-31T12:25:08.084Z,6.07
2018-05-31T12:27:35.631Z,6.70
2018-05-31T12:30:03.219Z,6.43
2018-05-31T12:32:30.825Z,6.80
2018-05-31T12:34:58.349Z,7.03
2018-05-31T12:37:25.907Z,6.43
2018-05-31T12:39:54.349Z,7.07
2018-05-31T12:42:21.939Z,7.37
2018-05-31T12:44:49.468Z,7.77
2018-05-31T12:47:16.984Z,9.40
2018-05-31T12:49:44.620Z,8.47
2018-05-31T12:52:12.215Z,7.90
2018-05-31T12:54:39.789Z,8.27
2018-05-31T12:57:07.392Z,7.33
2018-05-31T12:59:35.628Z,7.60
2018-05-31T13:02:03.977Z,9.33
2018-05-31T13:04:31.618Z,7.00
2018-05-31T13:06:59.253Z,8.53
2018-05-31T13:09:26.848Z,7.33
2018-05-31T13:11:59.211Z,7.73
2018-05-31T13:14:26.825Z,8.00
2018-05-31T13:16:54.358Z,8.90
2018-05-31T13:19:21.958Z,7.20
2018-05-31T13:21:49.643Z,8.57
2018-05-31T13:24:17.317Z,9.20
2018-05-31T13:26:44.833Z,7.90
2018-05-31T13:29:12.582Z,9.20
2018-05-31T13:31:40.192Z,9.70
2018-05-31T13:34:07.864Z,8.47
2018-05-31T13:36:35.441Z,9.53
2018-05-31T13:39:03.052Z,8.47
2018-05-31T13:41:30.652Z,8.40
2018-05-31T13:43:58.252Z,9.40
2018-05-31T13:46:25.788Z,9.70
2018-05-31T13:48:53.363Z,8.37
2018-05-31T13:51:20.939Z,9.13
2018-05-31T13:53:48.463Z,8.87
2018-05-31T13:56:16.017Z,8.60
2018-05-31T13:58:43.647Z,8.53
2018-05-31T14:01:11.192Z,9.57
2018-05-31T14:03:38.784Z,9.83
2018-05-31T14:06:06.401Z,9.73
